createdAt,value
2022-10-19T00:01:19.887Z,13.30
2022-10-19T00:03:55.808Z,13.40
2022-10-19T00:06:27.844Z,13.40
2022-10-19T00:08:58.353Z,13.40
2022-10-19T00:11:27.651Z,13.40
2022-10-19T00:13:58.020Z,13.50
2022-10-19T00:16:28.220Z,13.50
2022-10-19T00:18:59.527Z,13.40
2022-10-19T00:21:28.152Z,13.50
2022-10-19T00:23:56.257Z,13.50
2022-10-19T00:26:24.488Z,13.50
2022-10-19T00:28:55.605Z,13.60
2022-10-19T00:31:24.301Z,13.60
2022-10-19T00:33:53.348Z,13.60
2022-10-19T00:36:26.431Z,13.60
2022-10-19T00:38:55.564Z,13.60
2022-10-19T00:41:26.724Z,13.60
2022-10-19T00:43:58.373Z,13.50
2022-10-19T00:46:27.524Z,13.50
2022-10-19T00:49:01.278Z,13.50
2022-10-19T00:51:34.768Z,13.40
2022-10-19T00:54:05.314Z,13.30
2022-10-19T00:56:34.738Z,13.30
2022-10-19T00:59:05.665Z,13.30
2022-10-19T01:01:35.312Z,13.30
2022-10-19T01:04:05.138Z,13.30
2022-10-19T01:06:35.037Z,13.40
2022-10-19T01:09:03.684Z,13.50
2022-10-19T01:11:44.398Z,13.60
2022-10-19T01:14:30.730Z,13.60
2022-10-19T01:17:12.637Z,13.70
2022-10-19T01:20:35.171Z,13.70
2022-10-19T01:23:53.524Z,13.80
2022-10-19T01:26:54.432Z,13.80
2022-10-19T01:29:41.259Z,13.90
2022-10-19T01:32:17.125Z,13.90
2022-10-19T01:34:53.388Z,13.90
2022-10-19T01:37:33.302Z,13.90
2022-10-19T01:40:10.295Z,14.00
2022-10-19T01:42:46.235Z,14.00
2022-10-19T01:45:19.913Z,14.00
2022-10-19T01:47:54.235Z,14.00
2022-10-19T01:50:29.058Z,14.10
2022-10-19T01:52:58.444Z,14.10
2022-10-19T01:55:28.402Z,14.10
2022-10-19T01:58:00.863Z,14.10
2022-10-19T02:00:30.895Z,14.10
2022-10-19T02:03:02.203Z,14.10
2022-10-19T02:05:33.578Z,14.20
2022-10-19T02:08:06.046Z,14.20
2022-10-19T02:10:38.981Z,14.20
2022-10-19T02:13:09.045Z,14.30
2022-10-19T02:15:41.599Z,14.30
2022-10-19T02:18:14.117Z,14.30
2022-10-19T02:20:42.254Z,14.30
2022-10-19T02:23:10.829Z,14.30
2022-10-19T02:25:38.986Z,14.30
2022-10-19T02:28:07.498Z,14.40
2022-10-19T02:30:35.989Z,14.40
2022-10-19T02:33:04.109Z,14.40
2022-10-19T02:35:34.201Z,14.40
2022-10-19T02:38:03.821Z,14.40
2022-10-19T02:40:37.731Z,14.30
2022-10-19T02:43:12.657Z,14.30
2022-10-19T02:45:47.544Z,14.30
2022-10-19T02:48:22.095Z,14.30
2022-10-19T02:50:52.535Z,14.30
2022-10-19T02:53:20.631Z,14.30
2022-10-19T02:55:50.198Z,14.20
2022-10-19T02:58:18.260Z,14.20
2022-10-19T03:00:46.405Z,14.20
2022-10-19T03:03:14.506Z,14.10
2022-10-19T03:05:42.614Z,14.10
2022-10-19T03:08:12.036Z,14.00
2022-10-19T03:10:40.141Z,14.00
2022-10-19T03:13:08.220Z,14.00
2022-10-19T03:15:36.317Z,14.00
2022-10-19T03:18:04.468Z,13.90
2022-10-19T03:20:32.533Z,13.90
2022-10-19T03:23:00.741Z,13.90
2022-10-19T03:25:30.231Z,13.90
2022-10-19T03:27:58.317Z,13.80
2022-10-19T03:30:26.484Z,13.80
2022-10-19T03:32:54.595Z,13.70
2022-10-19T03:35:22.751Z,13.70
2022-10-19T03:37:50.821Z,13.70
2022-10-19T03:40:18.908Z,13.70
2022-10-19T03:42:48.422Z,13.60
2022-10-19T03:45:16.613Z,13.60
2022-10-19T03:47:44.690Z,13.60
2022-10-19T03:50:14.127Z,13.50
2022-10-19T03:52:42.310Z,13.50
2022-10-19T03:55:11.675Z,13.40
2022-10-19T03:57:39.765Z,13.30
2022-10-19T04:00:11.342Z,13.30
2022-10-19T04:02:42.484Z,13.30
2022-10-19T04:05:10.939Z,13.20
2022-10-19T04:07:38.986Z,13.20
2022-10-19T04:10:08.328Z,13.20
2022-10-19T04:12:36.447Z,13.10
2022-10-19T04:15:05.688Z,13.10
2022-10-19T04:17:35.534Z,13.00
2022-10-19T04:20:04.780Z,13.00
2022-10-19T04:22:32.988Z,12.90
2022-10-19T04:25:01.340Z,12.90
2022-10-19T04:27:29.539Z,12.80
2022-10-19T04:29:57.639Z,12.80
2022-10-19T04:32:25.809Z,12.70
2022-10-19T04:34:55.200Z,12.70
2022-10-19T04:37:23.292Z,12.70
2022-10-19T04:39:51.639Z,12.70
2022-10-19T04:42:19.759Z,12.70
2022-10-19T04:44:47.835Z,12.70
2022-10-19T04:47:15.910Z,12.70
2022-10-19T04:49:44.105Z,12.70
2022-10-19T04:52:13.519Z,12.70
2022-10-19T04:54:41.603Z,12.60
2022-10-19T04:57:09.707Z,12.60
2022-10-19T04:59:37.808Z,12.50
2022-10-19T05:02:06.346Z,12.40
2022-10-19T05:04:34.479Z,12.40
2022-10-19T05:07:02.550Z,12.40
2022-10-19T05:09:31.984Z,12.30
2022-10-19T05:12:00.087Z,12.30
2022-10-19T05:17:01.146Z,12.20
2022-10-19T05:19:29.252Z,12.10
2022-10-19T05:21:57.371Z,12.10
2022-10-19T05:24:25.728Z,12.10
2022-10-19T05:27:48.817Z,12.00
2022-10-19T05:30:17.009Z,12.00
2022-10-19T05:32:45.098Z,11.90
2022-10-19T05:35:13.189Z,11.90
2022-10-19T05:37:41.295Z,11.80
2022-10-19T05:40:11.418Z,11.70
2022-10-19T05:42:40.895Z,11.70
2022-10-19T05:45:09.772Z,11.70
2022-10-19T05:47:37.908Z,11.80
2022-10-19T05:50:07.130Z,11.80
2022-10-19T05:52:35.227Z,11.90
2022-10-19T05:55:03.322Z,11.90
2022-10-19T05:57:33.835Z,11.90
2022-10-19T06:00:04.299Z,11.90
2022-10-19T06:02:40.110Z,12.00
2022-10-19T06:05:09.236Z,12.00
2022-10-19T06:07:37.594Z,12.00
2022-10-19T06:10:06.956Z,12.10
2022-10-19T06:12:35.184Z,12.10
2022-10-19T06:15:05.218Z,12.10
2022-10-19T06:17:33.539Z,12.10
2022-10-19T06:20:01.871Z,12.20
2022-10-19T06:22:29.968Z,12.20
2022-10-19T06:24:58.206Z,12.20
2022-10-19T06:27:26.359Z,12.30
2022-10-19T06:29:54.489Z,12.30
2022-10-19T06:32:23.933Z,12.40
2022-10-19T06:34:56.671Z,12.90
2022-10-19T06:37:24.919Z,13.40
2022-10-19T06:39:52.996Z,14.00
2022-10-19T06:42:21.203Z,14.60
2022-10-19T06:44:49.316Z,15.20
2022-10-19T06:47:17.462Z,15.90
2022-10-19T06:49:47.108Z,16.40
2022-10-19T06:52:15.184Z,17.00
2022-10-19T06:54:43.520Z,17.40
2022-10-19T06:57:11.642Z,18.00
2022-10-19T06:59:39.720Z,18.50
2022-10-19T07:02:08.146Z,19.00
2022-10-19T07:04:36.236Z,19.40
2022-10-19T07:07:06.386Z,19.90
2022-10-19T07:09:34.846Z,20.40
2022-10-19T07:12:02.923Z,20.90
2022-10-19T07:14:31.824Z,21.20
2022-10-19T07:16:59.924Z,21.30
2022-10-19T07:19:28.343Z,21.50
2022-10-19T07:21:56.441Z,21.80
2022-10-19T07:24:26.275Z,21.70
2022-10-19T07:26:54.393Z,21.70
2022-10-19T07:29:22.645Z,21.70
2022-10-19T07:31:50.902Z,21.20
2022-10-19T07:34:18.996Z,20.80
2022-10-19T07:36:48.855Z,20.10
2022-10-19T07:39:18.088Z,19.70
2022-10-19T07:41:47.978Z,19.50
2022-10-19T07:44:16.721Z,19.20
2022-10-19T07:46:44.840Z,19.00
2022-10-19T07:49:18.900Z,18.80
2022-10-19T07:51:47.929Z,18.60
2022-10-19T07:54:16.304Z,18.50
2022-10-19T07:56:44.960Z,18.50
2022-10-19T07:59:16.224Z,18.30
2022-10-19T08:01:44.942Z,18.10
2022-10-19T08:04:49.068Z,18.00
2022-10-19T08:07:01.133Z,17.80
2022-10-19T08:12:17.500Z,17.50
2022-10-19T08:14:47.936Z,17.40
2022-10-19T08:17:17.416Z,17.40
2022-10-19T08:19:45.671Z,17.30
2022-10-19T08:22:13.949Z,17.30
2022-10-19T08:24:42.024Z,17.30
2022-10-19T08:27:10.193Z,17.30
2022-10-19T08:29:38.311Z,17.20
2022-10-19T08:32:07.930Z,17.20
2022-10-19T08:34:42.162Z,17.20
2022-10-19T08:37:26.025Z,17.20
2022-10-19T08:40:00.096Z,17.20
2022-10-19T08:42:42.485Z,17.40
2022-10-19T08:45:30.217Z,17.50
2022-10-19T08:48:16.040Z,17.50
2022-10-19T08:50:46.509Z,17.50
2022-10-19T08:53:18.253Z,17.60
2022-10-19T08:56:12.183Z,17.60
2022-10-19T08:59:03.756Z,17.60
2022-10-19T09:01:41.674Z,17.60
2022-10-19T09:04:20.761Z,17.50
2022-10-19T09:07:01.205Z,17.50
2022-10-19T09:09:32.001Z,17.50
2022-10-19T09:12:06.902Z,17.60
2022-10-19T09:14:41.787Z,17.60
2022-10-19T09:17:16.589Z,17.60
2022-10-19T09:19:46.346Z,17.70
2022-10-19T09:22:21.010Z,17.80
2022-10-19T09:24:52.985Z,17.90
2022-10-19T09:27:24.344Z,17.90
2022-10-19T09:29:57.324Z,17.80
2022-10-19T09:32:30.584Z,17.80
2022-10-19T09:35:03.732Z,17.80
2022-10-19T09:37:38.330Z,17.90
2022-10-19T09:40:08.655Z,17.90
2022-10-19T09:42:37.339Z,17.90
2022-10-19T09:45:21.393Z,18.00
2022-10-19T09:47:50.475Z,18.20
2022-10-19T09:50:23.403Z,18.30
2022-10-19T09:52:53.767Z,18.50
2022-10-19T09:55:30.070Z,18.70
2022-10-19T09:58:05.487Z,19.90
2022-10-19T10:00:38.360Z,21.40
2022-10-19T10:03:08.559Z,22.30
2022-10-19T10:05:40.922Z,22.80
2022-10-19T10:08:16.194Z,24.60
2022-10-19T10:10:47.612Z,25.30
2022-10-19T10:13:19.682Z,24.90
2022-10-19T10:15:52.325Z,24.90
2022-10-19T10:18:20.984Z,26.20
2022-10-19T10:21:05.889Z,27.00
2022-10-19T10:23:36.835Z,26.30
2022-10-19T10:26:15.928Z,25.50
2022-10-19T10:28:51.026Z,25.60
2022-10-19T10:31:25.028Z,25.30
2022-10-19T10:34:12.161Z,25.00
2022-10-19T10:36:54.633Z,24.60
2022-10-19T10:39:24.744Z,24.30
2022-10-19T10:41:53.013Z,23.80
2022-10-19T10:44:23.676Z,23.60
2022-10-19T10:46:55.555Z,23.30
2022-10-19T10:49:27.175Z,23.00
2022-10-19T10:52:01.398Z,22.80
2022-10-19T10:54:31.462Z,22.90
2022-10-19T10:57:13.713Z,22.80
2022-10-19T10:59:54.530Z,22.70
2022-10-19T11:02:36.917Z,22.70
2022-10-19T11:05:13.200Z,22.50
2022-10-19T11:07:46.924Z,22.50
2022-10-19T11:10:26.528Z,22.40
2022-10-19T11:13:04.974Z,23.60
2022-10-19T11:15:40.005Z,24.50
2022-10-19T11:18:20.864Z,25.90
2022-10-19T11:20:59.400Z,27.10
2022-10-19T11:23:52.978Z,28.20
2022-10-19T11:26:48.455Z,28.50
2022-10-19T11:29:39.204Z,28.70
2022-10-19T11:32:19.910Z,29.10
2022-10-19T11:35:08.387Z,28.60
2022-10-19T11:37:50.041Z,28.50
2022-10-19T11:40:54.248Z,29.70
2022-10-19T11:43:36.538Z,30.80
2022-10-19T11:46:12.439Z,30.70
2022-10-19T11:48:59.447Z,30.40
2022-10-19T11:51:36.951Z,30.40
2022-10-19T11:54:26.207Z,29.60
2022-10-19T11:57:04.957Z,29.30
2022-10-19T11:59:51.339Z,29.70
2022-10-19T12:02:48.880Z,29.00
2022-10-19T12:05:20.933Z,29.10
2022-10-19T12:08:07.440Z,28.90
2022-10-19T12:10:44.352Z,29.80
2022-10-19T12:13:19.554Z,29.10
2022-10-19T12:15:50.836Z,29.10
2022-10-19T12:18:26.020Z,28.80
2022-10-19T12:20:58.211Z,29.80
2022-10-19T12:23:32.925Z,30.00
2022-10-19T12:26:05.061Z,30.20
2022-10-19T12:28:38.388Z,30.30
2022-10-19T12:31:08.445Z,29.90
2022-10-19T12:33:47.254Z,28.80
2022-10-19T12:36:28.629Z,27.70
2022-10-19T12:39:05.674Z,27.40
2022-10-19T12:41:45.555Z,26.80
2022-10-19T12:44:42.145Z,26.20
2022-10-19T12:47:13.323Z,25.20
2022-10-19T12:49:49.838Z,24.50
2022-10-19T12:52:38.447Z,24.20
2022-10-19T12:55:29.736Z,24.20
2022-10-19T12:58:02.142Z,24.10
2022-10-19T13:00:34.543Z,23.70
2022-10-19T13:03:08.277Z,23.30
2022-10-19T13:05:37.044Z,22.90
2022-10-19T13:08:10.622Z,22.70
2022-10-19T13:10:41.929Z,22.50
2022-10-19T13:13:57.261Z,22.50
2022-10-19T13:16:59.386Z,22.40
2022-10-19T13:19:28.095Z,22.20
2022-10-19T13:22:26.919Z,22.00
2022-10-19T13:25:26.982Z,21.90
2022-10-19T13:28:03.727Z,21.80
2022-10-19T13:31:09.290Z,21.60
2022-10-19T13:33:56.175Z,21.80
2022-10-19T13:36:26.193Z,21.80
2022-10-19T13:39:14.439Z,21.60
2022-10-19T13:41:54.098Z,21.60
2022-10-19T13:44:27.103Z,21.40
2022-10-19T13:47:29.411Z,21.40
2022-10-19T13:50:33.431Z,21.60
2022-10-19T13:53:30.308Z,21.50
2022-10-19T13:56:31.028Z,21.50
2022-10-19T13:59:38.210Z,21.50
2022-10-19T14:02:54.387Z,21.50
2022-10-19T14:05:56.612Z,21.50
2022-10-19T14:09:00.905Z,21.40
2022-10-19T14:11:34.961Z,21.40
2022-10-19T14:14:16.552Z,21.30
2022-10-19T14:16:58.251Z,21.30
2022-10-19T14:19:33.104Z,21.30
2022-10-19T14:22:19.596Z,21.10
2022-10-19T14:24:47.693Z,21.10
2022-10-19T14:27:21.348Z,21.00
2022-10-19T14:29:52.423Z,21.00
2022-10-19T14:32:24.990Z,21.00
2022-10-19T14:34:54.496Z,20.90
2022-10-19T14:37:28.053Z,21.00
2022-10-19T14:40:03.059Z,20.90
2022-10-19T14:42:43.977Z,20.80
2022-10-19T14:45:17.477Z,20.60
2022-10-19T14:47:58.990Z,20.60
2022-10-19T14:50:40.572Z,20.50
2022-10-19T14:53:27.202Z,20.50
2022-10-19T14:55:58.809Z,20.50
2022-10-19T14:58:32.381Z,20.60
2022-10-19T15:01:00.564Z,20.70
2022-10-19T15:03:30.334Z,20.70
2022-10-19T15:06:02.522Z,20.80
2022-10-19T15:08:40.121Z,20.90
2022-10-19T15:11:20.202Z,20.80
2022-10-19T15:13:51.687Z,20.70
2022-10-19T15:16:43.158Z,20.50
2022-10-19T15:19:22.797Z,20.30
2022-10-19T15:22:17.981Z,20.10
2022-10-19T15:25:01.436Z,20.00
2022-10-19T15:27:36.055Z,19.90
2022-10-19T15:30:07.788Z,19.80
2022-10-19T15:32:38.918Z,19.70
2022-10-19T15:35:12.555Z,19.60
2022-10-19T15:37:45.155Z,19.50
2022-10-19T15:40:23.376Z,19.40
2022-10-19T15:42:51.542Z,19.20
2022-10-19T15:45:32.466Z,19.10
2022-10-19T15:48:29.906Z,18.90
2022-10-19T15:50:58.485Z,18.70
2022-10-19T15:53:27.168Z,18.60
2022-10-19T15:55:56.643Z,18.50
2022-10-19T15:58:25.175Z,18.30
2022-10-19T16:00:53.290Z,18.20
2022-10-19T16:03:21.370Z,18.10
2022-10-19T16:05:49.446Z,18.00
2022-10-19T16:08:17.629Z,17.90
2022-10-19T16:10:45.757Z,17.90
2022-10-19T16:13:15.233Z,17.80
2022-10-19T16:15:49.972Z,17.70
2022-10-19T16:18:24.812Z,17.60
2022-10-19T16:20:52.928Z,17.50
2022-10-19T16:23:21.618Z,17.40
2022-10-19T16:25:49.782Z,17.30
2022-10-19T16:28:20.037Z,17.20
2022-10-19T16:30:53.409Z,17.10
2022-10-19T16:33:21.649Z,17.00
2022-10-19T16:35:49.833Z,16.90
2022-10-19T16:38:18.040Z,16.90
2022-10-19T16:40:46.136Z,16.80
2022-10-19T16:43:14.249Z,16.70
2022-10-19T16:45:45.087Z,16.60
2022-10-19T16:48:13.456Z,16.60
2022-10-19T16:53:14.569Z,16.50
2022-10-19T16:55:43.225Z,16.40
2022-10-19T16:58:11.418Z,16.30
2022-10-19T17:00:39.578Z,16.20
2022-10-19T17:03:08.992Z,16.10
2022-10-19T17:05:39.132Z,16.10
2022-10-19T17:08:08.265Z,16.00
2022-10-19T17:10:36.421Z,15.90
2022-10-19T17:13:04.560Z,15.80
2022-10-19T17:15:47.860Z,15.70
2022-10-19T17:20:50.362Z,15.60
2022-10-19T17:23:18.979Z,15.50
2022-10-19T17:25:50.290Z,15.40
2022-10-19T17:28:18.380Z,15.30
2022-10-19T17:30:47.472Z,15.30
2022-10-19T17:33:17.229Z,15.20
2022-10-19T17:35:45.490Z,15.20
2022-10-19T17:38:13.646Z,15.10
2022-10-19T17:40:41.750Z,15.10
2022-10-19T17:43:10.721Z,15.00
2022-10-19T17:45:38.916Z,14.90
2022-10-19T17:48:08.296Z,14.80
2022-10-19T17:50:37.873Z,14.80
2022-10-19T17:53:05.992Z,14.70
2022-10-19T17:55:38.050Z,14.60
2022-10-19T17:58:06.160Z,14.50
2022-10-19T18:00:34.305Z,14.50
2022-10-19T18:03:02.476Z,14.40
2022-10-19T18:05:30.630Z,14.40
2022-10-19T18:08:00.155Z,14.30
2022-10-19T18:10:28.319Z,14.20
2022-10-19T18:12:56.447Z,14.20
2022-10-19T18:15:24.686Z,14.10
2022-10-19T18:17:52.806Z,14.10
2022-10-19T18:20:20.920Z,14.00
2022-10-19T18:22:49.053Z,13.90
2022-10-19T18:25:26.004Z,13.90
2022-10-19T18:28:06.049Z,13.80
2022-10-19T18:30:37.364Z,13.80
2022-10-19T18:33:06.154Z,13.70
2022-10-19T18:35:37.279Z,13.60
2022-10-19T18:38:05.961Z,13.50
2022-10-19T18:40:38.070Z,13.50
2022-10-19T18:43:07.528Z,13.40
2022-10-19T18:45:35.595Z,13.40
2022-10-19T18:48:03.716Z,13.30
2022-10-19T18:50:31.838Z,13.30
2022-10-19T18:53:00.044Z,13.20
2022-10-19T18:55:28.188Z,13.20
2022-10-19T18:57:57.649Z,13.10
2022-10-19T19:00:25.727Z,13.10
2022-10-19T19:02:55.039Z,13.10
2022-10-19T19:05:23.682Z,13.10
2022-10-19T19:07:51.965Z,13.10
2022-10-19T19:10:20.083Z,13.10
2022-10-19T19:12:51.277Z,13.00
2022-10-19T19:15:20.803Z,13.00
2022-10-19T19:17:48.909Z,13.00
2022-10-19T19:20:17.217Z,13.00
2022-10-19T19:22:45.517Z,13.00
2022-10-19T19:25:13.730Z,13.00
2022-10-19T19:27:41.848Z,13.00
2022-10-19T19:30:11.826Z,12.90
2022-10-19T19:32:42.355Z,12.90
2022-10-19T19:35:10.926Z,12.90
2022-10-19T19:37:39.137Z,12.90
2022-10-19T19:40:09.248Z,12.90
2022-10-19T19:42:37.346Z,12.90
2022-10-19T19:45:06.549Z,12.80
2022-10-19T19:47:34.889Z,12.80
2022-10-19T19:50:04.820Z,12.80
2022-10-19T19:52:36.911Z,12.70
2022-10-19T19:55:08.196Z,12.70
2022-10-19T19:57:36.698Z,12.70
2022-10-19T20:00:06.548Z,12.60
2022-10-19T20:02:39.697Z,12.60
2022-10-19T20:05:09.982Z,12.60
2022-10-19T20:07:38.199Z,12.60
2022-10-19T20:10:07.465Z,12.60
2022-10-19T20:12:35.615Z,12.50
2022-10-19T20:15:03.758Z,12.50
2022-10-19T20:17:31.853Z,12.50
2022-10-19T20:20:00.049Z,12.40
2022-10-19T20:22:29.498Z,12.40
2022-10-19T20:24:57.681Z,12.30
2022-10-19T20:27:26.160Z,12.30
2022-10-19T20:29:58.400Z,12.30
2022-10-19T20:32:27.272Z,12.30
2022-10-19T20:34:55.499Z,12.30
2022-10-19T20:37:23.738Z,12.20
2022-10-19T20:39:53.211Z,12.10
2022-10-19T20:42:21.636Z,12.10
2022-10-19T20:44:50.681Z,12.10
2022-10-19T20:47:18.953Z,12.00
2022-10-19T20:49:47.034Z,12.00
2022-10-19T20:52:15.180Z,12.00
2022-10-19T20:54:43.264Z,11.90
2022-10-19T20:57:12.714Z,11.90
2022-10-19T20:59:40.791Z,11.80
2022-10-19T21:02:11.167Z,11.80
2022-10-19T21:04:39.528Z,11.80
2022-10-19T21:07:07.733Z,11.80
2022-10-19T21:09:36.014Z,11.70
2022-10-19T21:12:04.250Z,11.70
2022-10-19T21:14:33.645Z,11.70
2022-10-19T21:17:01.775Z,11.60
2022-10-19T21:19:31.059Z,11.60
2022-10-19T21:22:02.635Z,11.60
2022-10-19T21:24:33.603Z,11.60
2022-10-19T21:27:03.726Z,11.60
2022-10-19T21:29:33.289Z,11.50
2022-10-19T21:32:01.403Z,11.50
2022-10-19T21:34:31.838Z,11.50
2022-10-19T21:37:00.856Z,11.40
2022-10-19T21:39:29.090Z,11.40
2022-10-19T21:41:57.915Z,11.40
2022-10-19T21:44:25.982Z,11.30
2022-10-19T21:46:55.436Z,11.30
2022-10-19T21:49:23.497Z,11.20
2022-10-19T21:51:53.525Z,11.20
2022-10-19T21:54:25.407Z,11.20
2022-10-19T21:56:55.616Z,11.20
2022-10-19T21:59:23.728Z,11.10
2022-10-19T22:01:51.847Z,11.10
2022-10-19T22:04:21.875Z,11.10
2022-10-19T22:06:50.780Z,11.00
2022-10-19T22:09:21.639Z,11.00
2022-10-19T22:11:50.269Z,10.90
2022-10-19T22:14:19.080Z,10.90
2022-10-19T22:16:47.257Z,10.90
2022-10-19T22:19:15.444Z,10.90
2022-10-19T22:21:44.886Z,10.90
2022-10-19T22:24:16.242Z,10.80
2022-10-19T22:26:47.642Z,10.80
2022-10-19T22:29:15.802Z,10.80
2022-10-19T22:31:44.448Z,10.80
2022-10-19T22:34:15.629Z,10.80
2022-10-19T22:36:46.019Z,10.80
2022-10-19T22:39:15.094Z,10.70
2022-10-19T22:41:43.219Z,10.70
2022-10-19T22:44:11.262Z,10.60
2022-10-19T22:46:39.432Z,10.60
2022-10-19T22:51:42.047Z,10.60
2022-10-19T22:54:11.634Z,10.60
2022-10-19T22:56:40.033Z,10.60
2022-10-19T22:59:09.092Z,10.50
2022-10-19T23:01:37.936Z,10.50
2022-10-19T23:04:06.715Z,10.40
2022-10-19T23:06:35.032Z,10.40
2022-10-19T23:09:03.249Z,10.40
2022-10-19T23:11:32.853Z,10.30
2022-10-19T23:14:00.991Z,10.30
2022-10-19T23:16:29.117Z,10.30
2022-10-19T23:18:57.442Z,10.30
2022-10-19T23:21:25.491Z,10.30
2022-10-19T23:23:53.730Z,10.30
2022-10-19T23:26:23.038Z,10.20
2022-10-19T23:28:52.652Z,10.20
2022-10-19T23:31:24.339Z,10.30
2022-10-19T23:33:53.870Z,10.30
2022-10-19T23:36:24.226Z,10.30
2022-10-19T23:38:53.918Z,10.30
2022-10-19T23:41:23.261Z,10.30
2022-10-19T23:43:52.982Z,10.30
2022-10-19T23:46:21.427Z,10.30
2022-10-19T23:48:49.577Z,10.30
2022-10-19T23:51:20.387Z,10.30
2022-10-19T23:53:51.028Z,10.30
2022-10-19T23:56:22.516Z,10.40
2022-10-19T23:58:52.667Z,10.40
